CheckWX is a tool to help pilots better visualize weather data.  It is not intended as a substitute for an official pre-flight weather briefing.

14:48:50 UTC

CYCB TAF
Cambridge Bay Airport
Cambridge Bay, Canada
TAF CYCB 231238Z 2313/2401 30015G25KT P6SM IC FEW120 TEMPO 2313/2401 5SM IC BLSN RMK NXT FCST BY 231900Z

Mar-23@
13:00 UTC

Mar-23 @ 13:00 UTC

Mar-24@
01:00 UTC

Mar-24 @ 01:00 UTC

TAF CYCB 231238Z 2313/2401 30015G25KT P6SM IC FEW120
Wind
  • 300° at 15 KTS
  • {Gusting to 25 KTS
Conditions
Ice crystals
Cloud Levels
  • Few at 12,000' AGL

Mar-23@
13:00 UTC

Mar-23 @ 13:00 UTC

Mar-24@
01:00 UTC

Mar-24 @ 01:00 UTC

TEMPO 2313/2401 5SM IC BLSN RMK NXT FCST BY 231900Z

Temporary

Temporary Changes expected for less than half the time period

Conditions
Ice crystals, Blowing Snow